sensor_id;sensor_type;location;lat;lon;timestamp;temperature;humidity
24338;DHT22;12457;50.832;4.346;2022-07-29T00:01:33;19.10;99.90
24338;DHT22;12457;50.832;4.346;2022-07-29T00:03:58;19.10;99.90
24338;DHT22;12457;50.832;4.346;2022-07-29T00:06:30;19.20;99.90
24338;DHT22;12457;50.832;4.346;2022-07-29T00:08:59;19.20;99.90
24338;DHT22;12457;50.832;4.346;2022-07-29T00:11:25;19.20;99.90
24338;DHT22;12457;50.832;4.346;2022-07-29T00:13:51;19.20;99.90
24338;DHT22;12457;50.832;4.346;2022-07-29T00:16:17;19.10;99.90
24338;DHT22;12457;50.832;4.346;2022-07-29T00:18:42;19.00;99.90
24338;DHT22;12457;50.832;4.346;2022-07-29T00:21:08;19.00;99.90
24338;DHT22;12457;50.832;4.346;2022-07-29T00:23:34;19.00;99.90
24338;DHT22;12457;50.832;4.346;2022-07-29T00:25:59;19.00;99.90
24338;DHT22;12457;50.832;4.346;2022-07-29T00:28:25;18.90;99.90
24338;DHT22;12457;50.832;4.346;2022-07-29T00:30:51;18.90;99.90
24338;DHT22;12457;50.832;4.346;2022-07-29T00:33:16;18.90;99.90
24338;DHT22;12457;50.832;4.346;2022-07-29T00:35:42;18.90;99.90
24338;DHT22;12457;50.832;4.346;2022-07-29T00:38:13;18.90;99.90
24338;DHT22;12457;50.832;4.346;2022-07-29T00:40:39;18.80;99.90
24338;DHT22;12457;50.832;4.346;2022-07-29T00:43:05;18.70;99.90
24338;DHT22;12457;50.832;4.346;2022-07-29T00:45:30;18.70;99.90
24338;DHT22;12457;50.832;4.346;2022-07-29T00:47:56;18.70;99.90
24338;DHT22;12457;50.832;4.346;2022-07-29T00:50:23;18.70;99.90
24338;DHT22;12457;50.832;4.346;2022-07-29T00:52:50;18.60;99.90
24338;DHT22;12457;50.832;4.346;2022-07-29T00:55:16;18.60;99.90
24338;DHT22;12457;50.832;4.346;2022-07-29T00:57:44;18.50;99.90
24338;DHT22;12457;50.832;4.346;2022-07-29T01:00:13;18.50;99.90
24338;DHT22;12457;50.832;4.346;2022-07-29T01:02:39;18.40;99.90
24338;DHT22;12457;50.832;4.346;2022-07-29T01:05:05;18.40;1.00
24338;DHT22;12457;50.832;4.346;2022-07-29T01:07:34;18.30;1.00
24338;DHT22;12457;50.832;4.346;2022-07-29T01:10:02;18.30;1.00
24338;DHT22;12457;50.832;4.346;2022-07-29T01:12:30;18.30;1.00
24338;DHT22;12457;50.832;4.346;2022-07-29T01:15:06;18.20;1.00
24338;DHT22;12457;50.832;4.346;2022-07-29T01:17:44;18.20;1.00
24338;DHT22;12457;50.832;4.346;2022-07-29T01:20:24;18.20;1.00
24338;DHT22;12457;50.832;4.346;2022-07-29T01:34:27;18.20;1.00
24338;DHT22;12457;50.832;4.346;2022-07-29T01:37:12;18.10;1.00
24338;DHT22;12457;50.832;4.346;2022-07-29T01:39:49;18.10;1.00
24338;DHT22;12457;50.832;4.346;2022-07-29T01:42:39;18.20;1.00
24338;DHT22;12457;50.832;4.346;2022-07-29T01:47:46;18.10;1.00
24338;DHT22;12457;50.832;4.346;2022-07-29T01:50:17;18.00;1.00
24338;DHT22;12457;50.832;4.346;2022-07-29T01:53:00;17.90;1.00
24338;DHT22;12457;50.832;4.346;2022-07-29T01:55:34;17.90;1.00
24338;DHT22;12457;50.832;4.346;2022-07-29T01:58:03;17.80;1.00
24338;DHT22;12457;50.832;4.346;2022-07-29T02:00:31;17.90;1.00
24338;DHT22;12457;50.832;4.346;2022-07-29T02:02:59;17.80;1.00
24338;DHT22;12457;50.832;4.346;2022-07-29T02:05:27;17.80;1.00
24338;DHT22;12457;50.832;4.346;2022-07-29T02:07:56;17.80;1.00
24338;DHT22;12457;50.832;4.346;2022-07-29T02:10:26;17.80;1.00
24338;DHT22;12457;50.832;4.346;2022-07-29T02:12:54;17.80;1.00
24338;DHT22;12457;50.832;4.346;2022-07-29T02:15:22;17.80;1.00
24338;DHT22;12457;50.832;4.346;2022-07-29T02:17:55;17.80;1.00
24338;DHT22;12457;50.832;4.346;2022-07-29T02:20:22;17.80;1.00
24338;DHT22;12457;50.832;4.346;2022-07-29T02:22:51;17.70;1.00
24338;DHT22;12457;50.832;4.346;2022-07-29T02:25:20;17.60;1.00
24338;DHT22;12457;50.832;4.346;2022-07-29T02:27:51;17.60;1.00
24338;DHT22;12457;50.832;4.346;2022-07-29T02:30:18;17.40;1.00
24338;DHT22;12457;50.832;4.346;2022-07-29T02:32:48;17.40;1.00
24338;DHT22;12457;50.832;4.346;2022-07-29T02:35:16;17.50;1.00
24338;DHT22;12457;50.832;4.346;2022-07-29T02:37:43;17.40;1.00
24338;DHT22;12457;50.832;4.346;2022-07-29T02:40:11;17.40;1.00
24338;DHT22;12457;50.832;4.346;2022-07-29T02:42:41;17.40;1.00
24338;DHT22;12457;50.832;4.346;2022-07-29T02:45:07;17.50;1.00
24338;DHT22;12457;50.832;4.346;2022-07-29T02:47:37;17.40;1.00
24338;DHT22;12457;50.832;4.346;2022-07-29T02:52:53;17.50;1.00
24338;DHT22;12457;50.832;4.346;2022-07-29T02:57:59;17.40;1.00
24338;DHT22;12457;50.832;4.346;2022-07-29T03:00:29;17.40;1.00
24338;DHT22;12457;50.832;4.346;2022-07-29T03:02:58;17.30;1.00
24338;DHT22;12457;50.832;4.346;2022-07-29T03:05:24;17.30;1.00
24338;DHT22;12457;50.832;4.346;2022-07-29T03:08:11;17.30;1.00
24338;DHT22;12457;50.832;4.346;2022-07-29T03:10:44;17.20;1.00
24338;DHT22;12457;50.832;4.346;2022-07-29T03:13:11;17.20;1.00
24338;DHT22;12457;50.832;4.346;2022-07-29T03:15:39;17.10;1.00
24338;DHT22;12457;50.832;4.346;2022-07-29T03:18:11;17.00;1.00
24338;DHT22;12457;50.832;4.346;2022-07-29T03:20:45;17.10;1.00
24338;DHT22;12457;50.832;4.346;2022-07-29T03:23:10;17.10;1.00
24338;DHT22;12457;50.832;4.346;2022-07-29T03:25:36;17.10;1.00
24338;DHT22;12457;50.832;4.346;2022-07-29T03:28:02;17.10;1.00
24338;DHT22;12457;50.832;4.346;2022-07-29T03:30:28;17.00;1.00
24338;DHT22;12457;50.832;4.346;2022-07-29T03:32:56;17.00;1.00
24338;DHT22;12457;50.832;4.346;2022-07-29T03:35:21;16.90;1.00
24338;DHT22;12457;50.832;4.346;2022-07-29T03:37:48;16.90;1.00
24338;DHT22;12457;50.832;4.346;2022-07-29T03:40:18;16.90;1.00
24338;DHT22;12457;50.832;4.346;2022-07-29T03:42:45;16.80;1.00
24338;DHT22;12457;50.832;4.346;2022-07-29T03:45:17;16.80;1.00
24338;DHT22;12457;50.832;4.346;2022-07-29T03:47:48;16.90;1.00
24338;DHT22;12457;50.832;4.346;2022-07-29T03:50:22;16.90;1.00
24338;DHT22;12457;50.832;4.346;2022-07-29T03:52:58;16.80;1.00
24338;DHT22;12457;50.832;4.346;2022-07-29T03:55:25;16.80;1.00
24338;DHT22;12457;50.832;4.346;2022-07-29T03:57:55;16.80;1.00
24338;DHT22;12457;50.832;4.346;2022-07-29T04:00:29;16.80;1.00
24338;DHT22;12457;50.832;4.346;2022-07-29T04:02:56;16.80;1.00
24338;DHT22;12457;50.832;4.346;2022-07-29T04:05:22;16.90;1.00
24338;DHT22;12457;50.832;4.346;2022-07-29T04:07:48;16.80;1.00
24338;DHT22;12457;50.832;4.346;2022-07-29T04:10:15;16.80;1.00
24338;DHT22;12457;50.832;4.346;2022-07-29T04:12:42;16.80;1.00
24338;DHT22;12457;50.832;4.346;2022-07-29T04:15:08;16.90;1.00
24338;DHT22;12457;50.832;4.346;2022-07-29T04:17:34;17.00;1.00
24338;DHT22;12457;50.832;4.346;2022-07-29T04:20:00;17.00;1.00
24338;DHT22;12457;50.832;4.346;2022-07-29T04:22:25;16.90;1.00
24338;DHT22;12457;50.832;4.346;2022-07-29T04:24:51;16.80;1.00
24338;DHT22;12457;50.832;4.346;2022-07-29T04:27:16;16.90;1.00
24338;DHT22;12457;50.832;4.346;2022-07-29T04:29:43;16.70;1.00
24338;DHT22;12457;50.832;4.346;2022-07-29T04:32:09;16.70;1.00
24338;DHT22;12457;50.832;4.346;2022-07-29T04:34:40;16.60;1.00
24338;DHT22;12457;50.832;4.346;2022-07-29T04:37:12;16.60;1.00
24338;DHT22;12457;50.832;4.346;2022-07-29T04:39:38;16.60;1.00
24338;DHT22;12457;50.832;4.346;2022-07-29T04:42:03;16.60;1.00
24338;DHT22;12457;50.832;4.346;2022-07-29T04:44:33;16.60;1.00
24338;DHT22;12457;50.832;4.346;2022-07-29T04:47:10;16.60;1.00
24338;DHT22;12457;50.832;4.346;2022-07-29T04:49:43;16.70;1.00
24338;DHT22;12457;50.832;4.346;2022-07-29T04:52:08;16.70;1.00
24338;DHT22;12457;50.832;4.346;2022-07-29T04:54:37;16.60;1.00
24338;DHT22;12457;50.832;4.346;2022-07-29T04:57:08;16.60;1.00
24338;DHT22;12457;50.832;4.346;2022-07-29T04:59:35;16.70;1.00
24338;DHT22;12457;50.832;4.346;2022-07-29T05:02:04;16.90;1.00
24338;DHT22;12457;50.832;4.346;2022-07-29T05:04:32;17.20;1.00
24338;DHT22;12457;50.832;4.346;2022-07-29T05:07:01;17.40;1.00
24338;DHT22;12457;50.832;4.346;2022-07-29T05:09:26;17.60;1.00
24338;DHT22;12457;50.832;4.346;2022-07-29T05:11:52;17.80;1.00
24338;DHT22;12457;50.832;4.346;2022-07-29T05:14:18;18.10;1.00
24338;DHT22;12457;50.832;4.346;2022-07-29T05:16:43;18.30;1.00
24338;DHT22;12457;50.832;4.346;2022-07-29T05:19:09;18.50;1.00
24338;DHT22;12457;50.832;4.346;2022-07-29T05:21:34;18.60;1.00
24338;DHT22;12457;50.832;4.346;2022-07-29T05:24:02;18.80;1.00
24338;DHT22;12457;50.832;4.346;2022-07-29T05:26:28;19.10;1.00
24338;DHT22;12457;50.832;4.346;2022-07-29T05:28:53;19.30;99.90
24338;DHT22;12457;50.832;4.346;2022-07-29T05:31:23;19.60;99.90
24338;DHT22;12457;50.832;4.346;2022-07-29T05:33:54;19.80;99.90
24338;DHT22;12457;50.832;4.346;2022-07-29T05:36:19;19.90;99.90
24338;DHT22;12457;50.832;4.346;2022-07-29T05:38:45;19.90;99.90
24338;DHT22;12457;50.832;4.346;2022-07-29T05:41:11;19.40;99.90
24338;DHT22;12457;50.832;4.346;2022-07-29T05:43:36;18.90;1.00
24338;DHT22;12457;50.832;4.346;2022-07-29T05:46:02;18.60;1.00
24338;DHT22;12457;50.832;4.346;2022-07-29T05:48:28;18.30;1.00
24338;DHT22;12457;50.832;4.346;2022-07-29T05:51:01;18.10;1.00
24338;DHT22;12457;50.832;4.346;2022-07-29T05:53:27;18.00;1.00
24338;DHT22;12457;50.832;4.346;2022-07-29T05:55:52;17.90;1.00
24338;DHT22;12457;50.832;4.346;2022-07-29T05:58:18;17.80;1.00
24338;DHT22;12457;50.832;4.346;2022-07-29T06:00:45;18.00;1.00
24338;DHT22;12457;50.832;4.346;2022-07-29T06:03:11;18.30;1.00
24338;DHT22;12457;50.832;4.346;2022-07-29T06:05:40;18.60;1.00
24338;DHT22;12457;50.832;4.346;2022-07-29T06:08:09;19.30;1.00
24338;DHT22;12457;50.832;4.346;2022-07-29T06:10:35;19.90;99.90
24338;DHT22;12457;50.832;4.346;2022-07-29T06:13:01;20.30;99.90
24338;DHT22;12457;50.832;4.346;2022-07-29T06:15:27;20.60;99.90
24338;DHT22;12457;50.832;4.346;2022-07-29T06:17:52;21.00;99.90
24338;DHT22;12457;50.832;4.346;2022-07-29T06:20:18;21.40;41.90
24338;DHT22;12457;50.832;4.346;2022-07-29T06:22:45;21.60;1.00
24338;DHT22;12457;50.832;4.346;2022-07-29T06:25:11;21.40;1.00
24338;DHT22;12457;50.832;4.346;2022-07-29T06:27:37;21.80;1.00
24338;DHT22;12457;50.832;4.346;2022-07-29T06:30:12;21.60;1.00
24338;DHT22;12457;50.832;4.346;2022-07-29T06:32:47;21.70;1.00
24338;DHT22;12457;50.832;4.346;2022-07-29T06:35:13;22.30;99.90
24338;DHT22;12457;50.832;4.346;2022-07-29T06:37:39;21.70;99.90
24338;DHT22;12457;50.832;4.346;2022-07-29T06:40:04;21.80;1.00
24338;DHT22;12457;50.832;4.346;2022-07-29T06:42:49;22.00;99.90
24338;DHT22;12457;50.832;4.346;2022-07-29T06:45:14;22.70;99.90
24338;DHT22;12457;50.832;4.346;2022-07-29T06:47:41;22.80;1.00
24338;DHT22;12457;50.832;4.346;2022-07-29T06:50:07;23.20;1.00
24338;DHT22;12457;50.832;4.346;2022-07-29T06:52:37;23.70;99.90
24338;DHT22;12457;50.832;4.346;2022-07-29T06:55:03;24.20;1.00
24338;DHT22;12457;50.832;4.346;2022-07-29T06:57:35;24.30;1.00
24338;DHT22;12457;50.832;4.346;2022-07-29T07:00:05;24.60;1.00
24338;DHT22;12457;50.832;4.346;2022-07-29T07:02:31;24.70;99.90
24338;DHT22;12457;50.832;4.346;2022-07-29T07:04:57;24.20;99.90
24338;DHT22;12457;50.832;4.346;2022-07-29T07:07:24;23.50;1.00
24338;DHT22;12457;50.832;4.346;2022-07-29T07:09:53;23.40;99.90
24338;DHT22;12457;50.832;4.346;2022-07-29T07:12:19;23.10;1.00
24338;DHT22;12457;50.832;4.346;2022-07-29T07:14:44;23.00;99.90
24338;DHT22;12457;50.832;4.346;2022-07-29T07:17:10;23.00;99.90
24338;DHT22;12457;50.832;4.346;2022-07-29T07:19:35;22.80;99.90
24338;DHT22;12457;50.832;4.346;2022-07-29T07:22:01;22.70;99.90
24338;DHT22;12457;50.832;4.346;2022-07-29T07:24:30;22.80;99.90
24338;DHT22;12457;50.832;4.346;2022-07-29T07:27:05;22.70;99.90
24338;DHT22;12457;50.832;4.346;2022-07-29T07:29:30;22.40;1.00
24338;DHT22;12457;50.832;4.346;2022-07-29T07:31:57;22.80;1.00
24338;DHT22;12457;50.832;4.346;2022-07-29T07:34:23;23.40;99.90
24338;DHT22;12457;50.832;4.346;2022-07-29T07:36:48;23.50;50.60
24338;DHT22;12457;50.832;4.346;2022-07-29T07:39:14;24.10;1.00
24338;DHT22;12457;50.832;4.346;2022-07-29T07:41:40;25.50;1.00
24338;DHT22;12457;50.832;4.346;2022-07-29T07:44:05;25.50;99.90
24338;DHT22;12457;50.832;4.346;2022-07-29T07:46:31;25.40;77.20
24338;DHT22;12457;50.832;4.346;2022-07-29T07:48:57;25.90;1.00
24338;DHT22;12457;50.832;4.346;2022-07-29T07:51:22;26.20;99.90
24338;DHT22;12457;50.832;4.346;2022-07-29T07:53:48;25.80;99.90
24338;DHT22;12457;50.832;4.346;2022-07-29T07:56:16;25.10;1.00
24338;DHT22;12457;50.832;4.346;2022-07-29T07:58:42;24.50;99.90
24338;DHT22;12457;50.832;4.346;2022-07-29T08:01:11;24.60;1.00
24338;DHT22;12457;50.832;4.346;2022-07-29T08:03:37;24.00;99.90
24338;DHT22;12457;50.832;4.346;2022-07-29T08:06:08;24.00;99.90
24338;DHT22;12457;50.832;4.346;2022-07-29T08:08:36;23.80;1.00
24338;DHT22;12457;50.832;4.346;2022-07-29T08:11:02;23.50;99.90
24338;DHT22;12457;50.832;4.346;2022-07-29T08:13:29;23.20;1.00
24338;DHT22;12457;50.832;4.346;2022-07-29T08:15:56;23.10;99.90
24338;DHT22;12457;50.832;4.346;2022-07-29T08:18:37;23.10;99.90
24338;DHT22;12457;50.832;4.346;2022-07-29T08:21:03;23.20;99.90
24338;DHT22;12457;50.832;4.346;2022-07-29T08:23:29;23.10;99.90
24338;DHT22;12457;50.832;4.346;2022-07-29T08:26:05;23.00;99.90
24338;DHT22;12457;50.832;4.346;2022-07-29T08:28:48;22.70;1.00
24338;DHT22;12457;50.832;4.346;2022-07-29T08:31:16;22.60;99.90
24338;DHT22;12457;50.832;4.346;2022-07-29T08:33:48;22.70;99.90
24338;DHT22;12457;50.832;4.346;2022-07-29T08:36:13;23.00;4.70
24338;DHT22;12457;50.832;4.346;2022-07-29T08:38:39;23.00;1.00
24338;DHT22;12457;50.832;4.346;2022-07-29T08:41:05;22.80;1.00
24338;DHT22;12457;50.832;4.346;2022-07-29T08:43:31;22.70;60.00
24338;DHT22;12457;50.832;4.346;2022-07-29T08:45:57;22.80;45.00
24338;DHT22;12457;50.832;4.346;2022-07-29T08:48:23;22.80;43.70
24338;DHT22;12457;50.832;4.346;2022-07-29T08:50:54;22.90;1.00
24338;DHT22;12457;50.832;4.346;2022-07-29T08:53:21;23.10;1.00
24338;DHT22;12457;50.832;4.346;2022-07-29T08:55:58;23.30;1.00
24338;DHT22;12457;50.832;4.346;2022-07-29T08:58:25;23.50;1.00
24338;DHT22;12457;50.832;4.346;2022-07-29T09:01:06;23.60;1.00
24338;DHT22;12457;50.832;4.346;2022-07-29T09:03:36;23.40;1.00
24338;DHT22;12457;50.832;4.346;2022-07-29T09:06:04;23.30;99.90
24338;DHT22;12457;50.832;4.346;2022-07-29T09:08:34;23.20;99.90
24338;DHT22;12457;50.832;4.346;2022-07-29T09:11:05;23.30;99.90
24338;DHT22;12457;50.832;4.346;2022-07-29T09:13:39;23.40;99.90
24338;DHT22;12457;50.832;4.346;2022-07-29T09:16:08;23.60;99.90
24338;DHT22;12457;50.832;4.346;2022-07-29T09:18:39;23.50;99.90
24338;DHT22;12457;50.832;4.346;2022-07-29T09:21:07;23.50;99.90
24338;DHT22;12457;50.832;4.346;2022-07-29T09:26:31;23.30;1.00
24338;DHT22;12457;50.832;4.346;2022-07-29T09:29:12;23.40;1.00
24338;DHT22;12457;50.832;4.346;2022-07-29T09:31:43;23.50;1.00
24338;DHT22;12457;50.832;4.346;2022-07-29T09:34:10;23.50;99.90
24338;DHT22;12457;50.832;4.346;2022-07-29T09:36:45;23.60;99.90
24338;DHT22;12457;50.832;4.346;2022-07-29T09:39:11;23.60;99.90
24338;DHT22;12457;50.832;4.346;2022-07-29T09:41:51;23.70;99.90
24338;DHT22;12457;50.832;4.346;2022-07-29T09:44:18;23.70;99.90
24338;DHT22;12457;50.832;4.346;2022-07-29T09:49:23;23.80;99.90
24338;DHT22;12457;50.832;4.346;2022-07-29T09:52:00;23.90;99.90
24338;DHT22;12457;50.832;4.346;2022-07-29T09:54:27;23.90;7.20
24338;DHT22;12457;50.832;4.346;2022-07-29T09:57:02;24.10;1.00
24338;DHT22;12457;50.832;4.346;2022-07-29T09:59:37;24.00;99.90
24338;DHT22;12457;50.832;4.346;2022-07-29T10:02:11;23.90;99.90
24338;DHT22;12457;50.832;4.346;2022-07-29T10:04:41;24.00;99.90
24338;DHT22;12457;50.832;4.346;2022-07-29T10:07:07;24.00;99.90
24338;DHT22;12457;50.832;4.346;2022-07-29T10:09:34;24.00;99.90
24338;DHT22;12457;50.832;4.346;2022-07-29T10:12:11;24.00;99.90
24338;DHT22;12457;50.832;4.346;2022-07-29T10:14:40;24.00;99.90
24338;DHT22;12457;50.832;4.346;2022-07-29T10:17:08;24.20;99.90
24338;DHT22;12457;50.832;4.346;2022-07-29T10:19:35;24.30;1.00
24338;DHT22;12457;50.832;4.346;2022-07-29T10:22:03;24.50;99.90
24338;DHT22;12457;50.832;4.346;2022-07-29T10:24:31;24.60;36.50
24338;DHT22;12457;50.832;4.346;2022-07-29T10:27:00;24.70;1.00
24338;DHT22;12457;50.832;4.346;2022-07-29T10:29:26;24.80;1.00
24338;DHT22;12457;50.832;4.346;2022-07-29T10:43:27;25.00;99.90
24338;DHT22;12457;50.832;4.346;2022-07-29T10:46:00;25.10;99.90
24338;DHT22;12457;50.832;4.346;2022-07-29T10:48:26;25.40;80.20
24338;DHT22;12457;50.832;4.346;2022-07-29T10:51:00;25.20;1.00
24338;DHT22;12457;50.832;4.346;2022-07-29T10:53:52;25.30;58.40
24338;DHT22;12457;50.832;4.346;2022-07-29T10:56:28;25.30;99.90
24338;DHT22;12457;50.832;4.346;2022-07-29T11:01:49;25.40;99.90
24338;DHT22;12457;50.832;4.346;2022-07-29T11:04:16;25.30;34.70
24338;DHT22;12457;50.832;4.346;2022-07-29T11:09:27;25.00;99.90
24338;DHT22;12457;50.832;4.346;2022-07-29T11:11:56;24.80;99.90
24338;DHT22;12457;50.832;4.346;2022-07-29T11:17:19;24.80;1.00
24338;DHT22;12457;50.832;4.346;2022-07-29T11:19:45;24.90;99.90
24338;DHT22;12457;50.832;4.346;2022-07-29T11:22:11;25.00;99.90
24338;DHT22;12457;50.832;4.346;2022-07-29T11:25:16;25.00;99.90
24338;DHT22;12457;50.832;4.346;2022-07-29T11:27:42;25.20;99.90
24338;DHT22;12457;50.832;4.346;2022-07-29T11:30:09;25.30;27.70
24338;DHT22;12457;50.832;4.346;2022-07-29T11:32:39;25.30;1.00
24338;DHT22;12457;50.832;4.346;2022-07-29T11:35:15;25.30;1.00
24338;DHT22;12457;50.832;4.346;2022-07-29T11:37:41;25.50;99.90
24338;DHT22;12457;50.832;4.346;2022-07-29T11:45:17;25.90;99.90
24338;DHT22;12457;50.832;4.346;2022-07-29T11:47:48;25.80;99.90
24338;DHT22;12457;50.832;4.346;2022-07-29T11:50:35;25.80;99.90
24338;DHT22;12457;50.832;4.346;2022-07-29T11:53:02;26.20;1.00
24338;DHT22;12457;50.832;4.346;2022-07-29T11:55:32;26.40;99.90
24338;DHT22;12457;50.832;4.346;2022-07-29T11:58:01;25.90;99.90
24338;DHT22;12457;50.832;4.346;2022-07-29T12:00:37;25.80;99.90
24338;DHT22;12457;50.832;4.346;2022-07-29T12:03:06;25.70;99.90
24338;DHT22;12457;50.832;4.346;2022-07-29T12:05:42;25.70;99.90
24338;DHT22;12457;50.832;4.346;2022-07-29T12:08:17;25.80;99.90
24338;DHT22;12457;50.832;4.346;2022-07-29T12:10:50;26.00;99.90
24338;DHT22;12457;50.832;4.346;2022-07-29T12:13:18;26.00;99.70
24338;DHT22;12457;50.832;4.346;2022-07-29T12:15:56;26.20;99.90
24338;DHT22;12457;50.832;4.346;2022-07-29T12:18:26;26.50;94.60
24338;DHT22;12457;50.832;4.346;2022-07-29T12:20:59;26.90;57.80
24338;DHT22;12457;50.832;4.346;2022-07-29T12:23:25;27.10;2.10
24338;DHT22;12457;50.832;4.346;2022-07-29T12:25:51;27.40;1.00
24338;DHT22;12457;50.832;4.346;2022-07-29T12:28:17;27.90;1.00
24338;DHT22;12457;50.832;4.346;2022-07-29T12:30:46;27.60;1.00
24338;DHT22;12457;50.832;4.346;2022-07-29T12:35:42;27.20;99.90
24338;DHT22;12457;50.832;4.346;2022-07-29T12:38:15;27.20;99.90
24338;DHT22;12457;50.832;4.346;2022-07-29T12:40:45;26.80;99.90
24338;DHT22;12457;50.832;4.346;2022-07-29T12:43:14;26.80;99.90
24338;DHT22;12457;50.832;4.346;2022-07-29T12:45:45;26.90;99.90
24338;DHT22;12457;50.832;4.346;2022-07-29T12:48:13;26.80;99.90
24338;DHT22;12457;50.832;4.346;2022-07-29T12:51:03;26.90;99.90
24338;DHT22;12457;50.832;4.346;2022-07-29T12:53:34;27.30;99.90
24338;DHT22;12457;50.832;4.346;2022-07-29T12:56:00;27.50;99.90
24338;DHT22;12457;50.832;4.346;2022-07-29T12:58:38;27.70;99.90
24338;DHT22;12457;50.832;4.346;2022-07-29T13:03:57;28.50;99.90
24338;DHT22;12457;50.832;4.346;2022-07-29T13:06:38;28.20;99.90
24338;DHT22;12457;50.832;4.346;2022-07-29T13:09:18;28.30;99.90
24338;DHT22;12457;50.832;4.346;2022-07-29T13:11:47;28.30;99.90
24338;DHT22;12457;50.832;4.346;2022-07-29T13:14:29;27.80;99.90
24338;DHT22;12457;50.832;4.346;2022-07-29T13:17:09;27.60;99.90
24338;DHT22;12457;50.832;4.346;2022-07-29T13:19:50;27.70;99.90
24338;DHT22;12457;50.832;4.346;2022-07-29T13:22:23;27.90;99.90
24338;DHT22;12457;50.832;4.346;2022-07-29T13:24:58;28.00;99.90
24338;DHT22;12457;50.832;4.346;2022-07-29T13:27:29;27.80;99.90
24338;DHT22;12457;50.832;4.346;2022-07-29T13:29:59;27.80;99.90
24338;DHT22;12457;50.832;4.346;2022-07-29T13:32:27;27.80;99.90
24338;DHT22;12457;50.832;4.346;2022-07-29T13:34:53;27.90;99.90
24338;DHT22;12457;50.832;4.346;2022-07-29T13:37:19;27.90;99.90
24338;DHT22;12457;50.832;4.346;2022-07-29T13:39:45;27.80;99.90
24338;DHT22;12457;50.832;4.346;2022-07-29T13:42:11;27.50;99.90
24338;DHT22;12457;50.832;4.346;2022-07-29T13:44:42;27.30;99.90
24338;DHT22;12457;50.832;4.346;2022-07-29T13:47:08;27.40;99.90
24338;DHT22;12457;50.832;4.346;2022-07-29T13:49:37;27.50;99.90
24338;DHT22;12457;50.832;4.346;2022-07-29T13:52:03;27.30;99.90
24338;DHT22;12457;50.832;4.346;2022-07-29T13:54:30;27.40;99.90
24338;DHT22;12457;50.832;4.346;2022-07-29T13:56:55;27.50;99.90
24338;DHT22;12457;50.832;4.346;2022-07-29T13:59:21;27.40;99.90
24338;DHT22;12457;50.832;4.346;2022-07-29T14:01:47;27.60;99.90
24338;DHT22;12457;50.832;4.346;2022-07-29T14:04:13;27.60;99.90
24338;DHT22;12457;50.832;4.346;2022-07-29T14:06:39;27.50;99.90
24338;DHT22;12457;50.832;4.346;2022-07-29T14:09:08;27.70;99.90
24338;DHT22;12457;50.832;4.346;2022-07-29T14:11:34;28.00;99.90
24338;DHT22;12457;50.832;4.346;2022-07-29T14:14:00;27.80;86.60
24338;DHT22;12457;50.832;4.346;2022-07-29T14:16:25;27.60;67.30
24338;DHT22;12457;50.832;4.346;2022-07-29T14:18:52;27.70;79.90
24338;DHT22;12457;50.832;4.346;2022-07-29T14:21:17;27.70;52.30
24338;DHT22;12457;50.832;4.346;2022-07-29T14:23:43;27.50;46.40
24338;DHT22;12457;50.832;4.346;2022-07-29T14:26:09;27.50;73.00
24338;DHT22;12457;50.832;4.346;2022-07-29T14:28:35;27.40;93.00
24338;DHT22;12457;50.832;4.346;2022-07-29T14:31:00;27.20;99.90
24338;DHT22;12457;50.832;4.346;2022-07-29T14:33:26;27.30;99.90
24338;DHT22;12457;50.832;4.346;2022-07-29T14:35:52;27.30;99.90
24338;DHT22;12457;50.832;4.346;2022-07-29T14:38:17;27.30;98.40
24338;DHT22;12457;50.832;4.346;2022-07-29T14:40:43;27.40;90.40
24338;DHT22;12457;50.832;4.346;2022-07-29T14:43:09;27.40;70.70
24338;DHT22;12457;50.832;4.346;2022-07-29T14:45:34;27.50;66.10
24338;DHT22;12457;50.832;4.346;2022-07-29T14:48:00;27.60;65.80
24338;DHT22;12457;50.832;4.346;2022-07-29T14:50:26;27.80;42.20
24338;DHT22;12457;50.832;4.346;2022-07-29T14:52:52;27.90;1.00
24338;DHT22;12457;50.832;4.346;2022-07-29T14:55:18;28.00;1.00
24338;DHT22;12457;50.832;4.346;2022-07-29T14:57:43;28.30;1.00
24338;DHT22;12457;50.832;4.346;2022-07-29T15:00:10;28.20;1.00
24338;DHT22;12457;50.832;4.346;2022-07-29T15:02:36;28.00;1.00
24338;DHT22;12457;50.832;4.346;2022-07-29T15:05:02;27.90;1.00
24338;DHT22;12457;50.832;4.346;2022-07-29T15:07:28;27.80;1.00
24338;DHT22;12457;50.832;4.346;2022-07-29T15:09:54;27.70;1.00
24338;DHT22;12457;50.832;4.346;2022-07-29T15:12:19;27.70;1.00
24338;DHT22;12457;50.832;4.346;2022-07-29T15:14:46;27.50;1.00
24338;DHT22;12457;50.832;4.346;2022-07-29T15:17:12;27.50;1.00
24338;DHT22;12457;50.832;4.346;2022-07-29T15:19:37;27.30;1.00
24338;DHT22;12457;50.832;4.346;2022-07-29T15:22:03;26.90;1.00
24338;DHT22;12457;50.832;4.346;2022-07-29T15:24:30;26.70;2.20
24338;DHT22;12457;50.832;4.346;2022-07-29T15:26:56;26.60;14.20
24338;DHT22;12457;50.832;4.346;2022-07-29T15:29:22;26.40;41.50
24338;DHT22;12457;50.832;4.346;2022-07-29T15:31:47;26.50;80.30
24338;DHT22;12457;50.832;4.346;2022-07-29T15:34:13;26.80;89.20
24338;DHT22;12457;50.832;4.346;2022-07-29T15:36:39;26.70;62.30
24338;DHT22;12457;50.832;4.346;2022-07-29T15:39:06;26.90;76.50
24338;DHT22;12457;50.832;4.346;2022-07-29T15:41:32;27.10;79.40
24338;DHT22;12457;50.832;4.346;2022-07-29T15:43:59;27.40;68.90
24338;DHT22;12457;50.832;4.346;2022-07-29T15:46:25;27.50;23.00
24338;DHT22;12457;50.832;4.346;2022-07-29T15:49:10;27.40;26.30
24338;DHT22;12457;50.832;4.346;2022-07-29T15:51:36;27.20;16.60
24338;DHT22;12457;50.832;4.346;2022-07-29T15:54:02;27.00;19.20
24338;DHT22;12457;50.832;4.346;2022-07-29T15:56:29;26.90;37.20
24338;DHT22;12457;50.832;4.346;2022-07-29T15:58:55;26.90;2.10
24338;DHT22;12457;50.832;4.346;2022-07-29T16:01:20;26.90;36.90
24338;DHT22;12457;50.832;4.346;2022-07-29T16:03:46;26.70;37.80
24338;DHT22;12457;50.832;4.346;2022-07-29T16:06:12;26.70;60.10
24338;DHT22;12457;50.832;4.346;2022-07-29T16:08:38;26.60;72.90
24338;DHT22;12457;50.832;4.346;2022-07-29T16:11:03;26.90;83.50
24338;DHT22;12457;50.832;4.346;2022-07-29T16:13:29;27.10;71.30
24338;DHT22;12457;50.832;4.346;2022-07-29T16:15:58;27.30;59.70
24338;DHT22;12457;50.832;4.346;2022-07-29T16:18:24;27.50;28.70
24338;DHT22;12457;50.832;4.346;2022-07-29T16:20:49;27.50;12.00
24338;DHT22;12457;50.832;4.346;2022-07-29T16:23:18;27.30;1.00
24338;DHT22;12457;50.832;4.346;2022-07-29T16:25:44;27.10;1.00
24338;DHT22;12457;50.832;4.346;2022-07-29T16:28:09;26.90;16.00
24338;DHT22;12457;50.832;4.346;2022-07-29T16:30:35;26.80;29.70
24338;DHT22;12457;50.832;4.346;2022-07-29T16:33:01;26.80;44.40
24338;DHT22;12457;50.832;4.346;2022-07-29T16:35:27;26.80;58.40
24338;DHT22;12457;50.832;4.346;2022-07-29T16:37:55;26.80;59.80
24338;DHT22;12457;50.832;4.346;2022-07-29T16:40:21;26.60;63.80
24338;DHT22;12457;50.832;4.346;2022-07-29T16:42:46;26.50;65.60